sensor_id;sensor_type;location;lat;lon;timestamp;P1;durP1;ratioP1;P2;durP2;ratioP2
69502;SDS011;56704;54.242;12.442;2022-07-29T00:01:08;9.80;;;3.40;;
69502;SDS011;56704;54.242;12.442;2022-07-29T00:03:40;6.40;;;2.70;;
69502;SDS011;56704;54.242;12.442;2022-07-29T00:06:07;6.22;;;2.80;;
69502;SDS011;56704;54.242;12.442;2022-07-29T00:08:33;6.80;;;2.80;;
69502;SDS011;56704;54.242;12.442;2022-07-29T00:11:00;6.43;;;2.95;;
69502;SDS011;56704;54.242;12.442;2022-07-29T00:13:27;7.87;;;3.17;;
69502;SDS011;56704;54.242;12.442;2022-07-29T00:15:54;7.63;;;3.05;;
69502;SDS011;56704;54.242;12.442;2022-07-29T00:18:23;5.72;;;2.50;;
69502;SDS011;56704;54.242;12.442;2022-07-29T00:20:50;6.97;;;3.20;;
69502;SDS011;56704;54.242;12.442;2022-07-29T00:23:16;8.07;;;3.65;;
69502;SDS011;56704;54.242;12.442;2022-07-29T00:25:43;8.40;;;2.77;;
69502;SDS011;56704;54.242;12.442;2022-07-29T00:28:09;8.57;;;2.92;;
69502;SDS011;56704;54.242;12.442;2022-07-29T00:30:36;7.05;;;2.63;;
69502;SDS011;56704;54.242;12.442;2022-07-29T00:33:04;7.22;;;2.88;;
69502;SDS011;56704;54.242;12.442;2022-07-29T00:35:30;7.97;;;3.03;;
69502;SDS011;56704;54.242;12.442;2022-07-29T00:38:08;9.03;;;3.00;;
69502;SDS011;56704;54.242;12.442;2022-07-29T00:40:35;8.73;;;3.20;;
69502;SDS011;56704;54.242;12.442;2022-07-29T00:43:01;7.30;;;3.20;;
69502;SDS011;56704;54.242;12.442;2022-07-29T00:45:28;6.82;;;3.00;;
69502;SDS011;56704;54.242;12.442;2022-07-29T00:47:55;7.85;;;2.85;;
69502;SDS011;56704;54.242;12.442;2022-07-29T00:50:23;8.07;;;3.10;;
69502;SDS011;56704;54.242;12.442;2022-07-29T00:52:50;6.90;;;2.75;;
69502;SDS011;56704;54.242;12.442;2022-07-29T00:55:17;8.85;;;3.05;;
69502;SDS011;56704;54.242;12.442;2022-07-29T00:57:44;10.02;;;3.17;;
69502;SDS011;56704;54.242;12.442;2022-07-29T01:00:14;6.65;;;2.70;;
69502;SDS011;56704;54.242;12.442;2022-07-29T01:02:42;6.43;;;2.90;;
69502;SDS011;56704;54.242;12.442;2022-07-29T01:05:09;6.30;;;2.92;;
69502;SDS011;56704;54.242;12.442;2022-07-29T01:07:39;7.57;;;2.95;;
69502;SDS011;56704;54.242;12.442;2022-07-29T01:10:06;7.30;;;2.70;;
69502;SDS011;56704;54.242;12.442;2022-07-29T01:12:36;7.47;;;2.78;;
69502;SDS011;56704;54.242;12.442;2022-07-29T01:15:04;8.07;;;3.10;;
69502;SDS011;56704;54.242;12.442;2022-07-29T01:17:34;7.60;;;3.25;;
69502;SDS011;56704;54.242;12.442;2022-07-29T01:20:13;7.78;;;3.17;;
69502;SDS011;56704;54.242;12.442;2022-07-29T01:25:52;7.95;;;3.03;;
69502;SDS011;56704;54.242;12.442;2022-07-29T01:28:44;6.73;;;3.03;;
69502;SDS011;56704;54.242;12.442;2022-07-29T01:31:18;9.63;;;3.22;;
69502;SDS011;56704;54.242;12.442;2022-07-29T01:33:52;6.30;;;2.63;;
69502;SDS011;56704;54.242;12.442;2022-07-29T01:36:25;6.20;;;2.70;;
69502;SDS011;56704;54.242;12.442;2022-07-29T01:38:58;5.95;;;2.70;;
69502;SDS011;56704;54.242;12.442;2022-07-29T01:41:31;8.67;;;3.07;;
69502;SDS011;56704;54.242;12.442;2022-07-29T01:44:02;8.18;;;2.90;;
69502;SDS011;56704;54.242;12.442;2022-07-29T01:46:38;7.22;;;2.50;;
69502;SDS011;56704;54.242;12.442;2022-07-29T01:49:08;6.63;;;2.70;;
69502;SDS011;56704;54.242;12.442;2022-07-29T01:51:40;5.78;;;2.92;;
69502;SDS011;56704;54.242;12.442;2022-07-29T01:54:12;6.73;;;2.70;;
69502;SDS011;56704;54.242;12.442;2022-07-29T01:56:42;6.97;;;2.97;;
69502;SDS011;56704;54.242;12.442;2022-07-29T01:59:12;7.57;;;3.00;;
69502;SDS011;56704;54.242;12.442;2022-07-29T02:01:39;6.50;;;2.63;;
69502;SDS011;56704;54.242;12.442;2022-07-29T02:04:09;8.13;;;2.53;;
69502;SDS011;56704;54.242;12.442;2022-07-29T02:06:38;7.83;;;2.70;;
69502;SDS011;56704;54.242;12.442;2022-07-29T02:09:06;7.82;;;3.08;;
69502;SDS011;56704;54.242;12.442;2022-07-29T02:11:34;6.78;;;2.97;;
69502;SDS011;56704;54.242;12.442;2022-07-29T02:14:04;8.00;;;2.85;;
69502;SDS011;56704;54.242;12.442;2022-07-29T02:16:34;7.85;;;2.55;;
69502;SDS011;56704;54.242;12.442;2022-07-29T02:19:02;7.20;;;2.83;;
69502;SDS011;56704;54.242;12.442;2022-07-29T02:21:31;7.05;;;2.55;;
69502;SDS011;56704;54.242;12.442;2022-07-29T02:23:59;6.93;;;2.78;;
69502;SDS011;56704;54.242;12.442;2022-07-29T02:26:27;6.35;;;2.67;;
69502;SDS011;56704;54.242;12.442;2022-07-29T02:28:56;6.68;;;2.50;;
69502;SDS011;56704;54.242;12.442;2022-07-29T02:31:26;7.20;;;2.40;;
69502;SDS011;56704;54.242;12.442;2022-07-29T02:33:59;9.10;;;2.40;;
69502;SDS011;56704;54.242;12.442;2022-07-29T02:36:27;6.10;;;2.30;;
69502;SDS011;56704;54.242;12.442;2022-07-29T02:38:55;6.95;;;3.17;;
69502;SDS011;56704;54.242;12.442;2022-07-29T02:41:26;6.03;;;2.22;;
69502;SDS011;56704;54.242;12.442;2022-07-29T02:43:55;6.00;;;2.20;;
69502;SDS011;56704;54.242;12.442;2022-07-29T02:46:26;8.38;;;2.50;;
69502;SDS011;56704;54.242;12.442;2022-07-29T02:48:56;7.65;;;2.47;;
69502;SDS011;56704;54.242;12.442;2022-07-29T02:51:32;5.68;;;2.20;;
69502;SDS011;56704;54.242;12.442;2022-07-29T02:54:03;6.65;;;2.40;;
69502;SDS011;56704;54.242;12.442;2022-07-29T02:56:33;7.13;;;2.20;;
69502;SDS011;56704;54.242;12.442;2022-07-29T02:59:03;6.53;;;2.30;;
69502;SDS011;56704;54.242;12.442;2022-07-29T03:01:32;5.10;;;1.90;;
69502;SDS011;56704;54.242;12.442;2022-07-29T03:04:03;5.35;;;2.20;;
69502;SDS011;56704;54.242;12.442;2022-07-29T03:06:31;5.35;;;2.00;;
69502;SDS011;56704;54.242;12.442;2022-07-29T03:08:59;4.90;;;2.10;;
69502;SDS011;56704;54.242;12.442;2022-07-29T03:11:26;8.05;;;1.80;;
69502;SDS011;56704;54.242;12.442;2022-07-29T03:13:53;7.20;;;2.25;;
69502;SDS011;56704;54.242;12.442;2022-07-29T03:16:23;6.82;;;2.30;;
69502;SDS011;56704;54.242;12.442;2022-07-29T03:18:50;7.90;;;2.20;;
69502;SDS011;56704;54.242;12.442;2022-07-29T03:21:19;8.57;;;2.00;;
69502;SDS011;56704;54.242;12.442;2022-07-29T03:23:46;7.35;;;2.17;;
69502;SDS011;56704;54.242;12.442;2022-07-29T03:26:13;5.63;;;2.10;;
69502;SDS011;56704;54.242;12.442;2022-07-29T03:28:39;6.63;;;2.20;;
69502;SDS011;56704;54.242;12.442;2022-07-29T03:31:06;5.95;;;2.28;;
69502;SDS011;56704;54.242;12.442;2022-07-29T03:33:33;7.97;;;2.30;;
69502;SDS011;56704;54.242;12.442;2022-07-29T03:35:59;6.70;;;2.40;;
69502;SDS011;56704;54.242;12.442;2022-07-29T03:38:29;7.05;;;2.17;;
69502;SDS011;56704;54.242;12.442;2022-07-29T03:41:00;10.35;;;2.80;;
69502;SDS011;56704;54.242;12.442;2022-07-29T03:43:30;5.78;;;2.30;;
69502;SDS011;56704;54.242;12.442;2022-07-29T03:45:58;7.50;;;2.07;;
69502;SDS011;56704;54.242;12.442;2022-07-29T03:48:27;6.18;;;2.40;;
69502;SDS011;56704;54.242;12.442;2022-07-29T03:50:56;6.85;;;2.30;;
69502;SDS011;56704;54.242;12.442;2022-07-29T03:53:23;6.88;;;2.40;;
69502;SDS011;56704;54.242;12.442;2022-07-29T03:55:52;6.32;;;2.70;;
69502;SDS011;56704;54.242;12.442;2022-07-29T03:58:22;7.63;;;2.60;;
69502;SDS011;56704;54.242;12.442;2022-07-29T04:00:52;7.20;;;2.50;;
69502;SDS011;56704;54.242;12.442;2022-07-29T04:03:19;8.48;;;2.40;;
69502;SDS011;56704;54.242;12.442;2022-07-29T04:05:57;7.10;;;2.28;;
69502;SDS011;56704;54.242;12.442;2022-07-29T04:08:24;5.60;;;1.73;;
69502;SDS011;56704;54.242;12.442;2022-07-29T04:10:52;6.77;;;2.40;;
69502;SDS011;56704;54.242;12.442;2022-07-29T04:13:18;6.97;;;2.10;;
69502;SDS011;56704;54.242;12.442;2022-07-29T04:15:45;6.28;;;2.15;;
69502;SDS011;56704;54.242;12.442;2022-07-29T04:18:12;4.93;;;1.70;;
69502;SDS011;56704;54.242;12.442;2022-07-29T04:20:38;5.28;;;2.08;;
69502;SDS011;56704;54.242;12.442;2022-07-29T04:23:05;6.27;;;2.20;;
69502;SDS011;56704;54.242;12.442;2022-07-29T04:25:31;7.63;;;2.10;;
69502;SDS011;56704;54.242;12.442;2022-07-29T04:27:59;4.88;;;1.88;;
69502;SDS011;56704;54.242;12.442;2022-07-29T04:30:26;8.35;;;2.33;;
69502;SDS011;56704;54.242;12.442;2022-07-29T04:32:53;6.43;;;2.22;;
69502;SDS011;56704;54.242;12.442;2022-07-29T04:35:20;7.47;;;2.00;;
69502;SDS011;56704;54.242;12.442;2022-07-29T04:37:47;6.28;;;2.22;;
69502;SDS011;56704;54.242;12.442;2022-07-29T04:40:13;5.90;;;1.90;;
69502;SDS011;56704;54.242;12.442;2022-07-29T04:42:40;5.82;;;2.05;;
69502;SDS011;56704;54.242;12.442;2022-07-29T04:45:08;7.50;;;2.28;;
69502;SDS011;56704;54.242;12.442;2022-07-29T04:47:35;6.93;;;2.20;;
69502;SDS011;56704;54.242;12.442;2022-07-29T04:50:02;7.47;;;2.25;;
69502;SDS011;56704;54.242;12.442;2022-07-29T04:52:30;6.55;;;2.17;;
69502;SDS011;56704;54.242;12.442;2022-07-29T04:54:56;5.80;;;2.00;;
69502;SDS011;56704;54.242;12.442;2022-07-29T04:57:23;5.75;;;1.95;;
69502;SDS011;56704;54.242;12.442;2022-07-29T04:59:49;8.00;;;2.10;;
69502;SDS011;56704;54.242;12.442;2022-07-29T05:02:17;4.93;;;2.20;;
69502;SDS011;56704;54.242;12.442;2022-07-29T05:04:44;6.97;;;2.03;;
69502;SDS011;56704;54.242;12.442;2022-07-29T05:07:11;9.68;;;2.30;;
69502;SDS011;56704;54.242;12.442;2022-07-29T05:09:37;5.60;;;1.67;;
69502;SDS011;56704;54.242;12.442;2022-07-29T05:12:04;5.50;;;1.80;;
69502;SDS011;56704;54.242;12.442;2022-07-29T05:14:31;5.70;;;1.58;;
69502;SDS011;56704;54.242;12.442;2022-07-29T05:16:58;6.40;;;1.83;;
69502;SDS011;56704;54.242;12.442;2022-07-29T05:19:26;8.35;;;1.80;;
69502;SDS011;56704;54.242;12.442;2022-07-29T05:21:52;8.57;;;1.80;;
69502;SDS011;56704;54.242;12.442;2022-07-29T05:24:19;5.30;;;1.70;;
69502;SDS011;56704;54.242;12.442;2022-07-29T05:26:45;5.60;;;1.63;;
69502;SDS011;56704;54.242;12.442;2022-07-29T05:29:12;5.25;;;1.85;;
69502;SDS011;56704;54.242;12.442;2022-07-29T05:31:39;5.22;;;1.85;;
69502;SDS011;56704;54.242;12.442;2022-07-29T05:34:05;9.70;;;2.20;;
69502;SDS011;56704;54.242;12.442;2022-07-29T05:36:33;5.23;;;2.00;;
69502;SDS011;56704;54.242;12.442;2022-07-29T05:39:00;6.82;;;1.92;;
69502;SDS011;56704;54.242;12.442;2022-07-29T05:41:26;5.75;;;1.52;;
69502;SDS011;56704;54.242;12.442;2022-07-29T05:43:54;5.80;;;1.92;;
69502;SDS011;56704;54.242;12.442;2022-07-29T05:46:20;5.45;;;1.85;;
69502;SDS011;56704;54.242;12.442;2022-07-29T05:48:47;5.03;;;1.40;;
69502;SDS011;56704;54.242;12.442;2022-07-29T05:51:13;6.25;;;1.67;;
69502;SDS011;56704;54.242;12.442;2022-07-29T05:53:41;4.57;;;1.70;;
69502;SDS011;56704;54.242;12.442;2022-07-29T05:56:09;7.70;;;1.48;;
69502;SDS011;56704;54.242;12.442;2022-07-29T05:58:35;5.47;;;1.70;;
69502;SDS011;56704;54.242;12.442;2022-07-29T06:01:02;5.67;;;1.50;;
69502;SDS011;56704;54.242;12.442;2022-07-29T06:03:29;6.20;;;1.42;;
69502;SDS011;56704;54.242;12.442;2022-07-29T06:05:56;8.20;;;1.80;;
69502;SDS011;56704;54.242;12.442;2022-07-29T06:08:25;5.72;;;1.77;;
69502;SDS011;56704;54.242;12.442;2022-07-29T06:10:53;7.13;;;1.40;;
69502;SDS011;56704;54.242;12.442;2022-07-29T06:13:19;5.00;;;1.50;;
69502;SDS011;56704;54.242;12.442;2022-07-29T06:15:46;5.55;;;1.58;;
69502;SDS011;56704;54.242;12.442;2022-07-29T06:18:13;3.97;;;1.33;;
69502;SDS011;56704;54.242;12.442;2022-07-29T06:20:40;3.80;;;1.33;;
69502;SDS011;56704;54.242;12.442;2022-07-29T06:23:07;7.20;;;1.70;;
69502;SDS011;56704;54.242;12.442;2022-07-29T06:25:34;8.33;;;1.53;;
69502;SDS011;56704;54.242;12.442;2022-07-29T06:28:03;6.05;;;1.10;;
69502;SDS011;56704;54.242;12.442;2022-07-29T06:30:30;4.20;;;1.55;;
69502;SDS011;56704;54.242;12.442;2022-07-29T06:32:56;4.68;;;1.23;;
69502;SDS011;56704;54.242;12.442;2022-07-29T06:35:23;5.97;;;1.40;;
69502;SDS011;56704;54.242;12.442;2022-07-29T06:37:49;3.87;;;1.37;;
69502;SDS011;56704;54.242;12.442;2022-07-29T06:40:16;4.20;;;1.40;;
69502;SDS011;56704;54.242;12.442;2022-07-29T06:43:01;5.15;;;1.17;;
69502;SDS011;56704;54.242;12.442;2022-07-29T06:45:29;5.32;;;1.27;;
69502;SDS011;56704;54.242;12.442;2022-07-29T06:47:56;7.70;;;1.30;;
69502;SDS011;56704;54.242;12.442;2022-07-29T06:50:22;3.97;;;1.27;;
69502;SDS011;56704;54.242;12.442;2022-07-29T06:52:49;4.68;;;1.25;;
69502;SDS011;56704;54.242;12.442;2022-07-29T06:55:15;9.73;;;1.45;;
69502;SDS011;56704;54.242;12.442;2022-07-29T06:57:44;6.65;;;1.70;;
69502;SDS011;56704;54.242;12.442;2022-07-29T07:00:13;4.03;;;1.10;;
69502;SDS011;56704;54.242;12.442;2022-07-29T07:02:40;3.73;;;1.30;;
69502;SDS011;56704;54.242;12.442;2022-07-29T07:05:06;3.58;;;1.15;;
69502;SDS011;56704;54.242;12.442;2022-07-29T07:07:33;5.55;;;1.20;;
69502;SDS011;56704;54.242;12.442;2022-07-29T07:10:00;4.80;;;1.60;;
69502;SDS011;56704;54.242;12.442;2022-07-29T07:12:27;4.10;;;1.35;;
69502;SDS011;56704;54.242;12.442;2022-07-29T07:14:53;5.63;;;1.20;;
69502;SDS011;56704;54.242;12.442;2022-07-29T07:17:21;5.50;;;1.42;;
69502;SDS011;56704;54.242;12.442;2022-07-29T07:19:47;5.45;;;1.00;;
69502;SDS011;56704;54.242;12.442;2022-07-29T07:22:14;8.50;;;1.65;;
69502;SDS011;56704;54.242;12.442;2022-07-29T07:24:43;3.50;;;1.20;;
69502;SDS011;56704;54.242;12.442;2022-07-29T07:27:10;2.97;;;1.10;;
69502;SDS011;56704;54.242;12.442;2022-07-29T07:29:37;4.82;;;1.48;;
69502;SDS011;56704;54.242;12.442;2022-07-29T07:32:06;7.28;;;1.45;;
69502;SDS011;56704;54.242;12.442;2022-07-29T07:34:34;3.78;;;1.10;;
69502;SDS011;56704;54.242;12.442;2022-07-29T07:37:02;5.00;;;1.65;;
69502;SDS011;56704;54.242;12.442;2022-07-29T07:39:29;4.83;;;1.30;;
69502;SDS011;56704;54.242;12.442;2022-07-29T07:41:55;4.97;;;1.17;;
69502;SDS011;56704;54.242;12.442;2022-07-29T07:44:22;5.35;;;1.50;;
69502;SDS011;56704;54.242;12.442;2022-07-29T07:46:48;5.55;;;1.50;;
69502;SDS011;56704;54.242;12.442;2022-07-29T07:49:15;3.72;;;1.15;;
69502;SDS011;56704;54.242;12.442;2022-07-29T07:51:43;4.53;;;1.23;;
69502;SDS011;56704;54.242;12.442;2022-07-29T07:54:10;7.57;;;1.45;;
69502;SDS011;56704;54.242;12.442;2022-07-29T07:56:36;6.28;;;1.35;;
69502;SDS011;56704;54.242;12.442;2022-07-29T07:59:03;4.35;;;1.15;;
69502;SDS011;56704;54.242;12.442;2022-07-29T08:01:29;4.50;;;1.42;;
69502;SDS011;56704;54.242;12.442;2022-07-29T08:03:56;2.67;;;1.20;;
69502;SDS011;56704;54.242;12.442;2022-07-29T08:06:22;5.82;;;1.40;;
69502;SDS011;56704;54.242;12.442;2022-07-29T08:08:51;3.40;;;1.20;;
69502;SDS011;56704;54.242;12.442;2022-07-29T08:11:18;4.50;;;1.30;;
69502;SDS011;56704;54.242;12.442;2022-07-29T08:13:46;5.90;;;1.50;;
69502;SDS011;56704;54.242;12.442;2022-07-29T08:16:13;5.87;;;1.40;;
69502;SDS011;56704;54.242;12.442;2022-07-29T08:18:40;4.45;;;1.33;;
69502;SDS011;56704;54.242;12.442;2022-07-29T08:21:08;4.10;;;1.38;;
69502;SDS011;56704;54.242;12.442;2022-07-29T08:23:34;4.13;;;1.30;;
69502;SDS011;56704;54.242;12.442;2022-07-29T08:26:04;4.28;;;1.35;;
69502;SDS011;56704;54.242;12.442;2022-07-29T08:28:35;4.53;;;1.40;;
69502;SDS011;56704;54.242;12.442;2022-07-29T08:31:02;4.32;;;1.30;;
69502;SDS011;56704;54.242;12.442;2022-07-29T08:33:29;4.57;;;1.23;;
69502;SDS011;56704;54.242;12.442;2022-07-29T08:35:55;5.32;;;1.58;;
69502;SDS011;56704;54.242;12.442;2022-07-29T08:38:22;5.57;;;1.73;;
69502;SDS011;56704;54.242;12.442;2022-07-29T08:40:48;4.70;;;1.40;;
69502;SDS011;56704;54.242;12.442;2022-07-29T08:43:17;6.13;;;1.50;;
69502;SDS011;56704;54.242;12.442;2022-07-29T08:45:45;4.20;;;1.40;;
69502;SDS011;56704;54.242;12.442;2022-07-29T08:48:12;5.95;;;1.60;;
69502;SDS011;56704;54.242;12.442;2022-07-29T08:50:39;8.60;;;1.38;;
69502;SDS011;56704;54.242;12.442;2022-07-29T08:53:09;3.93;;;1.00;;
69502;SDS011;56704;54.242;12.442;2022-07-29T08:55:38;4.57;;;1.52;;
69502;SDS011;56704;54.242;12.442;2022-07-29T08:58:06;3.85;;;1.20;;
69502;SDS011;56704;54.242;12.442;2022-07-29T09:00:35;6.03;;;1.40;;
69502;SDS011;56704;54.242;12.442;2022-07-29T09:03:03;4.35;;;1.23;;
69502;SDS011;56704;54.242;12.442;2022-07-29T09:05:31;5.60;;;1.73;;
69502;SDS011;56704;54.242;12.442;2022-07-29T09:07:58;4.32;;;1.30;;
69502;SDS011;56704;54.242;12.442;2022-07-29T09:10:25;4.45;;;1.50;;
69502;SDS011;56704;54.242;12.442;2022-07-29T09:12:53;3.00;;;1.30;;
69502;SDS011;56704;54.242;12.442;2022-07-29T09:15:21;3.58;;;1.25;;
69502;SDS011;56704;54.242;12.442;2022-07-29T09:17:49;3.90;;;1.37;;
69502;SDS011;56704;54.242;12.442;2022-07-29T09:20:17;7.05;;;1.48;;
69502;SDS011;56704;54.242;12.442;2022-07-29T09:22:45;3.95;;;1.40;;
69502;SDS011;56704;54.242;12.442;2022-07-29T09:25:14;5.35;;;1.40;;
69502;SDS011;56704;54.242;12.442;2022-07-29T09:28:05;6.18;;;1.75;;
69502;SDS011;56704;54.242;12.442;2022-07-29T09:30:32;6.57;;;1.70;;
69502;SDS011;56704;54.242;12.442;2022-07-29T09:33:01;3.83;;;1.20;;
69502;SDS011;56704;54.242;12.442;2022-07-29T09:35:28;4.15;;;1.17;;
69502;SDS011;56704;54.242;12.442;2022-07-29T09:37:56;4.68;;;1.15;;
69502;SDS011;56704;54.242;12.442;2022-07-29T09:40:24;5.75;;;2.85;;
69502;SDS011;56704;54.242;12.442;2022-07-29T09:42:52;4.67;;;1.47;;
69502;SDS011;56704;54.242;12.442;2022-07-29T09:45:28;5.40;;;1.77;;
69502;SDS011;56704;54.242;12.442;2022-07-29T09:47:56;5.10;;;1.42;;
69502;SDS011;56704;54.242;12.442;2022-07-29T09:50:35;3.33;;;1.40;;
69502;SDS011;56704;54.242;12.442;2022-07-29T09:53:03;3.45;;;1.42;;
69502;SDS011;56704;54.242;12.442;2022-07-29T09:55:29;4.00;;;1.33;;
69502;SDS011;56704;54.242;12.442;2022-07-29T09:58:05;3.97;;;1.20;;
69502;SDS011;56704;54.242;12.442;2022-07-29T10:00:44;3.42;;;1.10;;
69502;SDS011;56704;54.242;12.442;2022-07-29T10:03:11;3.85;;;1.60;;
69502;SDS011;56704;54.242;12.442;2022-07-29T10:05:40;7.82;;;1.60;;
69502;SDS011;56704;54.242;12.442;2022-07-29T10:08:07;3.23;;;1.50;;
69502;SDS011;56704;54.242;12.442;2022-07-29T10:10:35;5.22;;;1.50;;
69502;SDS011;56704;54.242;12.442;2022-07-29T10:13:03;4.68;;;1.38;;
69502;SDS011;56704;54.242;12.442;2022-07-29T10:15:31;5.22;;;1.58;;
69502;SDS011;56704;54.242;12.442;2022-07-29T10:18:02;4.53;;;1.65;;
69502;SDS011;56704;54.242;12.442;2022-07-29T10:20:29;3.20;;;1.30;;
69502;SDS011;56704;54.242;12.442;2022-07-29T10:22:57;4.65;;;1.33;;
69502;SDS011;56704;54.242;12.442;2022-07-29T10:25:24;5.13;;;1.45;;
69502;SDS011;56704;54.242;12.442;2022-07-29T10:27:52;3.75;;;1.10;;
69502;SDS011;56704;54.242;12.442;2022-07-29T10:30:20;5.35;;;1.40;;
69502;SDS011;56704;54.242;12.442;2022-07-29T10:35:53;4.40;;;1.40;;
69502;SDS011;56704;54.242;12.442;2022-07-29T10:41:26;6.20;;;1.48;;
69502;SDS011;56704;54.242;12.442;2022-07-29T10:44:14;4.63;;;1.30;;
69502;SDS011;56704;54.242;12.442;2022-07-29T10:46:42;3.00;;;1.20;;
69502;SDS011;56704;54.242;12.442;2022-07-29T10:49:11;3.45;;;1.30;;
69502;SDS011;56704;54.242;12.442;2022-07-29T10:51:55;5.10;;;1.58;;
69502;SDS011;56704;54.242;12.442;2022-07-29T10:54:37;3.75;;;1.30;;
69502;SDS011;56704;54.242;12.442;2022-07-29T10:57:19;4.22;;;1.63;;
69502;SDS011;56704;54.242;12.442;2022-07-29T11:00:25;4.13;;;1.40;;
69502;SDS011;56704;54.242;12.442;2022-07-29T11:02:57;3.85;;;1.20;;
69502;SDS011;56704;54.242;12.442;2022-07-29T11:05:26;3.65;;;1.27;;
69502;SDS011;56704;54.242;12.442;2022-07-29T11:10:46;3.55;;;1.20;;
69502;SDS011;56704;54.242;12.442;2022-07-29T11:13:22;3.27;;;1.40;;
69502;SDS011;56704;54.242;12.442;2022-07-29T11:16:12;3.90;;;1.30;;
69502;SDS011;56704;54.242;12.442;2022-07-29T11:21:41;4.68;;;1.30;;
69502;SDS011;56704;54.242;12.442;2022-07-29T11:24:11;6.38;;;1.50;;
69502;SDS011;56704;54.242;12.442;2022-07-29T11:26:40;3.57;;;1.30;;
69502;SDS011;56704;54.242;12.442;2022-07-29T11:29:14;6.28;;;1.25;;
69502;SDS011;56704;54.242;12.442;2022-07-29T11:31:45;5.10;;;1.27;;
69502;SDS011;56704;54.242;12.442;2022-07-29T11:34:23;5.45;;;1.88;;
69502;SDS011;56704;54.242;12.442;2022-07-29T11:42:49;2.85;;;1.48;;
69502;SDS011;56704;54.242;12.442;2022-07-29T11:45:17;3.60;;;1.38;;
69502;SDS011;56704;54.242;12.442;2022-07-29T11:47:57;4.00;;;1.48;;
69502;SDS011;56704;54.242;12.442;2022-07-29T11:50:30;4.30;;;1.52;;
69502;SDS011;56704;54.242;12.442;2022-07-29T11:52:59;4.10;;;1.40;;
69502;SDS011;56704;54.242;12.442;2022-07-29T11:55:26;4.32;;;1.60;;
69502;SDS011;56704;54.242;12.442;2022-07-29T11:57:55;4.70;;;1.48;;
69502;SDS011;56704;54.242;12.442;2022-07-29T12:00:25;5.95;;;1.58;;
69502;SDS011;56704;54.242;12.442;2022-07-29T12:02:55;7.50;;;1.92;;
69502;SDS011;56704;54.242;12.442;2022-07-29T12:05:29;6.23;;;1.60;;
69502;SDS011;56704;54.242;12.442;2022-07-29T12:08:04;3.53;;;1.50;;
69502;SDS011;56704;54.242;12.442;2022-07-29T12:10:36;4.20;;;1.92;;
69502;SDS011;56704;54.242;12.442;2022-07-29T12:13:04;5.47;;;1.60;;
69502;SDS011;56704;54.242;12.442;2022-07-29T12:15:31;5.93;;;1.75;;
69502;SDS011;56704;54.242;12.442;2022-07-29T12:17:58;5.97;;;1.93;;
69502;SDS011;56704;54.242;12.442;2022-07-29T12:20:25;5.10;;;1.58;;
69502;SDS011;56704;54.242;12.442;2022-07-29T12:22:53;3.65;;;1.67;;
69502;SDS011;56704;54.242;12.442;2022-07-29T12:25:20;5.68;;;1.50;;
69502;SDS011;56704;54.242;12.442;2022-07-29T12:27:57;5.25;;;1.60;;
69502;SDS011;56704;54.242;12.442;2022-07-29T12:30:33;3.87;;;1.27;;
69502;SDS011;56704;54.242;12.442;2022-07-29T12:33:09;3.78;;;1.40;;
69502;SDS011;56704;54.242;12.442;2022-07-29T12:35:37;4.03;;;1.52;;
69502;SDS011;56704;54.242;12.442;2022-07-29T12:38:04;3.25;;;1.50;;
69502;SDS011;56704;54.242;12.442;2022-07-29T12:40:31;3.70;;;1.58;;
69502;SDS011;56704;54.242;12.442;2022-07-29T12:43:05;7.43;;;1.70;;
69502;SDS011;56704;54.242;12.442;2022-07-29T12:45:38;4.90;;;1.52;;
69502;SDS011;56704;54.242;12.442;2022-07-29T12:48:05;5.72;;;1.70;;
69502;SDS011;56704;54.242;12.442;2022-07-29T12:50:33;5.20;;;1.42;;
69502;SDS011;56704;54.242;12.442;2022-07-29T12:53:10;4.82;;;1.40;;
69502;SDS011;56704;54.242;12.442;2022-07-29T12:55:39;3.63;;;1.23;;
69502;SDS011;56704;54.242;12.442;2022-07-29T12:58:10;5.53;;;1.60;;
69502;SDS011;56704;54.242;12.442;2022-07-29T13:00:38;5.60;;;1.60;;
69502;SDS011;56704;54.242;12.442;2022-07-29T13:03:04;3.85;;;1.50;;
69502;SDS011;56704;54.242;12.442;2022-07-29T13:05:40;6.28;;;1.67;;
69502;SDS011;56704;54.242;12.442;2022-07-29T13:08:09;4.07;;;1.73;;
69502;SDS011;56704;54.242;12.442;2022-07-29T13:10:37;4.20;;;1.40;;
69502;SDS011;56704;54.242;12.442;2022-07-29T13:13:04;4.53;;;1.48;;
69502;SDS011;56704;54.242;12.442;2022-07-29T13:15:33;3.95;;;1.35;;
69502;SDS011;56704;54.242;12.442;2022-07-29T13:18:01;5.85;;;1.42;;
69502;SDS011;56704;54.242;12.442;2022-07-29T13:20:28;3.63;;;1.20;;
69502;SDS011;56704;54.242;12.442;2022-07-29T13:22:55;3.80;;;1.50;;
69502;SDS011;56704;54.242;12.442;2022-07-29T13:25:23;5.45;;;1.63;;
69502;SDS011;56704;54.242;12.442;2022-07-29T13:27:51;4.25;;;1.30;;
69502;SDS011;56704;54.242;12.442;2022-07-29T13:30:19;5.97;;;1.70;;
69502;SDS011;56704;54.242;12.442;2022-07-29T13:32:46;3.80;;;1.20;;
69502;SDS011;56704;54.242;12.442;2022-07-29T13:35:14;5.40;;;1.30;;
69502;SDS011;56704;54.242;12.442;2022-07-29T13:37:41;5.25;;;1.60;;
69502;SDS011;56704;54.242;12.442;2022-07-29T13:40:09;3.88;;;1.25;;
69502;SDS011;56704;54.242;12.442;2022-07-29T13:42:36;5.50;;;1.50;;
69502;SDS011;56704;54.242;12.442;2022-07-29T13:45:04;3.20;;;1.03;;
69502;SDS011;56704;54.242;12.442;2022-07-29T13:47:31;3.20;;;1.20;;
69502;SDS011;56704;54.242;12.442;2022-07-29T13:49:58;2.83;;;1.35;;
69502;SDS011;56704;54.242;12.442;2022-07-29T13:52:26;5.25;;;1.40;;
69502;SDS011;56704;54.242;12.442;2022-07-29T13:54:53;4.05;;;1.38;;
69502;SDS011;56704;54.242;12.442;2022-07-29T13:57:19;6.27;;;1.60;;
69502;SDS011;56704;54.242;12.442;2022-07-29T13:59:46;7.35;;;2.83;;
69502;SDS011;56704;54.242;12.442;2022-07-29T14:02:13;4.70;;;1.50;;
69502;SDS011;56704;54.242;12.442;2022-07-29T14:04:39;7.18;;;1.70;;
69502;SDS011;56704;54.242;12.442;2022-07-29T14:07:06;3.78;;;1.70;;
69502;SDS011;56704;54.242;12.442;2022-07-29T14:09:34;3.93;;;1.30;;
69502;SDS011;56704;54.242;12.442;2022-07-29T14:12:01;4.47;;;1.40;;
69502;SDS011;56704;54.242;12.442;2022-07-29T14:14:28;4.38;;;1.38;;
69502;SDS011;56704;54.242;12.442;2022-07-29T14:16:56;3.75;;;1.30;;
69502;SDS011;56704;54.242;12.442;2022-07-29T14:19:23;3.55;;;1.38;;
69502;SDS011;56704;54.242;12.442;2022-07-29T14:21:49;7.90;;;1.43;;
69502;SDS011;56704;54.242;12.442;2022-07-29T14:24:16;4.07;;;1.50;;
69502;SDS011;56704;54.242;12.442;2022-07-29T14:26:44;4.32;;;1.55;;
69502;SDS011;56704;54.242;12.442;2022-07-29T14:29:10;4.88;;;2.08;;
69502;SDS011;56704;54.242;12.442;2022-07-29T14:31:37;6.45;;;1.75;;
69502;SDS011;56704;54.242;12.442;2022-07-29T14:34:03;6.53;;;1.37;;
69502;SDS011;56704;54.242;12.442;2022-07-29T14:36:30;3.55;;;1.25;;
69502;SDS011;56704;54.242;12.442;2022-07-29T14:38:56;4.93;;;1.30;;
69502;SDS011;56704;54.242;12.442;2022-07-29T14:41:23;4.95;;;1.48;;
69502;SDS011;56704;54.242;12.442;2022-07-29T14:43:51;4.25;;;1.20;;
69502;SDS011;56704;54.242;12.442;2022-07-29T14:46:18;4.13;;;1.30;;
69502;SDS011;56704;54.242;12.442;2022-07-29T14:48:45;4.20;;;1.20;;
69502;SDS011;56704;54.242;12.442;2022-07-29T14:51:11;2.95;;;1.25;;
69502;SDS011;56704;54.242;12.442;2022-07-29T14:53:38;4.47;;;1.10;;
69502;SDS011;56704;54.242;12.442;2022-07-29T14:56:04;4.15;;;1.30;;
69502;SDS011;56704;54.242;12.442;2022-07-29T14:58:31;5.23;;;1.20;;
69502;SDS011;56704;54.242;12.442;2022-07-29T15:00:59;6.00;;;1.20;;
69502;SDS011;56704;54.242;12.442;2022-07-29T15:03:25;5.13;;;1.40;;